Time;durP1;ratioP1;P1;durP2;ratioP2;P2;SDS_P1;SDS_P2;PMS_P1;PMS_P2;Temp;Humidity;BMP_temperature;BMP_pressure;BME280_temperature;BME280_humidity;BME280_pressure;Samples;Min_cycle;Max_cycle;Signal;HPM_P1;HPM_P2
2024/02/03 00:01:04;;;;;;;16.13;3.00;;;;;;;;;;2075638;28;20116;-77
2024/02/03 00:02:23;;;;;;;15.80;2.50;;;;;;;;;;2072802;28;20834;-76
2024/02/03 00:03:42;;;;;;;16.45;2.97;;;;;;;;;;2075595;28;20021;-77
2024/02/03 00:05:01;;;;;;;9.90;2.17;;;;;;;;;;2077459;28;20026;-76
2024/02/03 00:06:20;;;;;;;13.77;2.03;;;;;;;;;;2075614;28;20026;-76
2024/02/03 00:07:39;;;;;;;7.35;1.55;;;;;;;;;;2076654;28;20492;-77
2024/02/03 00:08:58;;;;;;;12.32;2.85;;;;;;;;;;2077130;28;20072;-76
2024/02/03 00:10:17;;;;;;;10.88;2.22;;;;;;;;;;2078143;28;20029;-77
2024/02/03 00:11:36;;;;;;;6.07;1.33;;;;;;;;;;2075866;28;20025;-77
2024/02/03 00:12:56;;;;;;;15.50;2.25;;;;;;;;;;2075636;28;20120;-76
2024/02/03 00:14:15;;;;;;;9.80;1.85;;;;;;;;;;2068025;28;20513;-76
2024/02/03 00:15:34;;;;;;;10.60;2.10;;;;;;;;;;2072850;28;20042;-76
2024/02/03 00:16:55;;;;;;;5.40;1.33;;;;;;;;;;2076833;28;20026;-77
2024/02/03 00:18:14;;;;;;;8.15;2.13;;;;;;;;;;2076085;28;20022;-77
2024/02/03 00:19:33;;;;;;;13.20;2.05;;;;;;;;;;2076240;28;20480;-77
2024/02/03 00:20:52;;;;;;;13.13;2.10;;;;;;;;;;2076887;28;20483;-77
2024/02/03 00:22:11;;;;;;;8.60;1.75;;;;;;;;;;2076533;28;20021;-77
2024/02/03 00:23:30;;;;;;;10.73;1.80;;;;;;;;;;2075596;28;20022;-77
2024/02/03 00:24:49;;;;;;;9.40;2.40;;;;;;;;;;2076817;28;20037;-77
2024/02/03 00:26:08;;;;;;;11.05;2.17;;;;;;;;;;2067964;28;20708;-77
2024/02/03 00:27:28;;;;;;;11.57;1.77;;;;;;;;;;2064630;28;20026;-77
2024/02/03 00:28:46;;;;;;;10.40;1.90;;;;;;;;;;2065361;28;20030;-77
2024/02/03 00:30:06;;;;;;;13.48;2.13;;;;;;;;;;2072951;28;20037;-75
2024/02/03 00:31:25;;;;;;;8.45;1.65;;;;;;;;;;2067207;28;20043;-75
2024/02/03 00:32:45;;;;;;;5.97;1.92;;;;;;;;;;2072867;28;20030;-75
2024/02/03 00:34:03;;;;;;;9.18;1.63;;;;;;;;;;2077003;28;20045;-75
2024/02/03 00:35:22;;;;;;;15.30;2.03;;;;;;;;;;2076521;28;20463;-75
2024/02/03 00:36:41;;;;;;;7.63;1.98;;;;;;;;;;2076954;28;20049;-76
2024/02/03 00:38:00;;;;;;;10.45;2.13;;;;;;;;;;2074513;28;20508;-75
2024/02/03 00:39:19;;;;;;;9.52;2.05;;;;;;;;;;2076340;28;20499;-74
2024/02/03 00:40:38;;;;;;;6.90;1.55;;;;;;;;;;2068749;28;20029;-75
2024/02/03 00:41:56;;;;;;;7.50;2.15;;;;;;;;;;2072737;28;20492;-75
2024/02/03 00:43:16;;;;;;;8.30;1.80;;;;;;;;;;2074851;28;20109;-75
2024/02/03 00:44:36;;;;;;;11.85;1.92;;;;;;;;;;2066839;28;20061;-75
2024/02/03 00:45:54;;;;;;;5.70;1.40;;;;;;;;;;2072925;28;20022;-74
2024/02/03 00:47:13;;;;;;;10.20;1.90;;;;;;;;;;2074993;28;20033;-76
2024/02/03 00:48:32;;;;;;;9.70;1.80;;;;;;;;;;2075122;28;20034;-76
2024/02/03 00:49:51;;;;;;;5.45;1.63;;;;;;;;;;2075353;28;20038;-74
2024/02/03 00:51:11;;;;;;;10.98;1.80;;;;;;;;;;2066977;28;20034;-74
2024/02/03 00:52:30;;;;;;;7.10;1.65;;;;;;;;;;2072365;28;20055;-74
2024/02/03 00:53:49;;;;;;;5.57;1.27;;;;;;;;;;2077007;28;20062;-74
2024/02/03 00:55:09;;;;;;;4.25;1.15;;;;;;;;;;2074866;28;20049;-74
2024/02/03 00:56:28;;;;;;;8.27;1.50;;;;;;;;;;2076718;28;20520;-74
2024/02/03 00:57:47;;;;;;;12.52;1.85;;;;;;;;;;2076847;28;20034;-74
2024/02/03 00:59:06;;;;;;;6.85;1.60;;;;;;;;;;2077050;28;20109;-74
2024/02/03 01:00:27;;;;;;;14.60;2.35;;;;;;;;;;2076250;28;20393;-73
2024/02/03 01:01:46;;;;;;;7.65;1.65;;;;;;;;;;2076386;28;20029;-74
2024/02/03 01:03:05;;;;;;;7.70;1.75;;;;;;;;;;2066647;28;20035;-74
2024/02/03 01:04:24;;;;;;;8.30;1.75;;;;;;;;;;2072544;28;20377;-73
2024/02/03 01:05:44;;;;;;;9.10;2.15;;;;;;;;;;2076372;28;20030;-74
2024/02/03 01:07:02;;;;;;;8.18;1.77;;;;;;;;;;2066848;28;20026;-73
2024/02/03 01:08:22;;;;;;;4.95;1.20;;;;;;;;;;2072576;28;20026;-74
2024/02/03 01:09:41;;;;;;;7.85;1.65;;;;;;;;;;2077668;28;20025;-74
2024/02/03 01:11:00;;;;;;;6.72;1.25;;;;;;;;;;2065997;28;20034;-74
2024/02/03 01:12:19;;;;;;;11.18;1.92;;;;;;;;;;2072885;28;20046;-73
2024/02/03 01:13:38;;;;;;;9.35;1.75;;;;;;;;;;2068229;28;20521;-74
2024/02/03 01:14:57;;;;;;;15.02;2.08;;;;;;;;;;2064412;28;20038;-74
2024/02/03 01:16:16;;;;;;;9.20;2.55;;;;;;;;;;2068301;28;20046;-74
2024/02/03 01:17:35;;;;;;;11.05;1.65;;;;;;;;;;2063859;28;20508;-74
2024/02/03 01:18:54;;;;;;;9.98;2.05;;;;;;;;;;2073350;28;20060;-73
2024/02/03 01:20:13;;;;;;;7.47;1.42;;;;;;;;;;2077575;28;20029;-74
2024/02/03 01:21:32;;;;;;;10.32;1.80;;;;;;;;;;2075777;28;20388;-74
2024/02/03 01:22:51;;;;;;;6.57;1.85;;;;;;;;;;2075865;28;20496;-74
2024/02/03 01:24:10;;;;;;;10.90;2.00;;;;;;;;;;2077292;28;20034;-74
2024/02/03 01:25:29;;;;;;;13.05;2.03;;;;;;;;;;2076141;28;20025;-74
2024/02/03 01:26:48;;;;;;;5.68;1.30;;;;;;;;;;2076392;28;20030;-73
2024/02/03 01:28:07;;;;;;;10.90;1.60;;;;;;;;;;2075180;28;20407;-74
2024/02/03 01:29:26;;;;;;;6.70;1.45;;;;;;;;;;2067656;28;20029;-75
2024/02/03 01:30:45;;;;;;;6.20;2.17;;;;;;;;;;2073763;28;20460;-73
2024/02/03 01:32:04;;;;;;;5.50;1.63;;;;;;;;;;2076761;28;20037;-77
2024/02/03 01:33:24;;;;;;;6.82;1.27;;;;;;;;;;2077011;28;20034;-74
2024/02/03 01:34:43;;;;;;;10.23;2.45;;;;;;;;;;2076515;28;20555;-74
2024/02/03 01:36:03;;;;;;;6.07;1.40;;;;;;;;;;2075819;28;20392;-74
2024/02/03 01:37:21;;;;;;;10.30;1.58;;;;;;;;;;2076233;28;20030;-73
2024/02/03 01:38:44;;;;;;;11.18;1.80;;;;;;;;;;2066918;28;20026;-74
2024/02/03 01:40:03;;;;;;;9.32;1.80;;;;;;;;;;2071747;28;20022;-73
2024/02/03 01:41:22;;;;;;;10.32;1.70;;;;;;;;;;2076150;28;20033;-74
2024/02/03 01:42:41;;;;;;;10.30;2.60;;;;;;;;;;2076757;28;20030;-73
2024/02/03 01:44:00;;;;;;;6.88;2.33;;;;;;;;;;2076525;28;20042;-73
2024/02/03 01:45:19;;;;;;;5.68;1.52;;;;;;;;;;2073720;28;20037;-73
2024/02/03 01:46:39;;;;;;;11.90;2.88;;;;;;;;;;2076056;28;20038;-73
2024/02/03 01:47:58;;;;;;;2.83;0.98;;;;;;;;;;2077525;28;20033;-73
2024/02/03 01:49:17;;;;;;;11.68;1.90;;;;;;;;;;2077645;28;20090;-73
2024/02/03 01:50:37;;;;;;;5.10;1.80;;;;;;;;;;2076310;28;20041;-73
2024/02/03 01:51:57;;;;;;;10.35;2.30;;;;;;;;;;2074023;28;20037;-73
2024/02/03 01:53:20;;;;;;;9.20;1.58;;;;;;;;;;2076029;28;20030;-73
2024/02/03 01:54:43;;;;;;;9.82;2.55;;;;;;;;;;2075283;28;20420;-73
2024/02/03 01:56:02;;;;;;;7.63;1.63;;;;;;;;;;2077042;28;20038;-73
2024/02/03 01:57:22;;;;;;;7.68;1.40;;;;;;;;;;2075213;28;20038;-72
2024/02/03 01:58:41;;;;;;;9.45;1.38;;;;;;;;;;2076633;28;20101;-72
2024/02/03 02:00:01;;;;;;;8.18;1.90;;;;;;;;;;2074790;28;20029;-73
2024/02/03 02:01:20;;;;;;;7.35;1.27;;;;;;;;;;2075444;28;20025;-73
2024/02/03 02:02:39;;;;;;;13.52;1.65;;;;;;;;;;2074603;28;20026;-73
2024/02/03 02:03:58;;;;;;;6.97;1.67;;;;;;;;;;2075709;28;20112;-73
2024/02/03 02:05:17;;;;;;;6.07;1.42;;;;;;;;;;2076705;28;20033;-73
2024/02/03 02:06:37;;;;;;;9.57;1.33;;;;;;;;;;2075447;28;20014;-74
2024/02/03 02:07:56;;;;;;;7.10;1.65;;;;;;;;;;2076893;28;20435;-73
2024/02/03 02:09:22;;;;;;;7.70;1.67;;;;;;;;;;2075656;28;20026;-73
2024/02/03 02:10:40;;;;;;;6.63;1.77;;;;;;;;;;2073393;28;20022;-73
2024/02/03 02:11:59;;;;;;;8.27;2.08;;;;;;;;;;2066349;28;20128;-74
2024/02/03 02:13:18;;;;;;;6.03;1.40;;;;;;;;;;2063569;28;20038;-74
2024/02/03 02:14:37;;;;;;;6.68;1.65;;;;;;;;;;2071953;28;20033;-74
2024/02/03 02:15:56;;;;;;;6.03;1.60;;;;;;;;;;2075292;28;20067;-74
2024/02/03 02:17:15;;;;;;;8.52;1.63;;;;;;;;;;2076351;28;20021;-73
2024/02/03 02:18:34;;;;;;;6.15;1.65;;;;;;;;;;2065661;28;20030;-73
2024/02/03 02:19:58;;;;;;;6.43;1.27;;;;;;;;;;2067827;28;20397;-74
2024/02/03 02:21:19;;;;;;;7.25;2.13;;;;;;;;;;2072522;28;20073;-74
2024/02/03 02:22:38;;;;;;;8.95;2.00;;;;;;;;;;2074672;28;20358;-74
2024/02/03 02:23:57;;;;;;;10.90;1.92;;;;;;;;;;2065938;28;20459;-73
2024/02/03 02:25:16;;;;;;;8.70;1.60;;;;;;;;;;2070975;28;20022;-73
2024/02/03 02:26:35;;;;;;;6.75;1.83;;;;;;;;;;2076567;28;20025;-73
2024/02/03 02:27:54;;;;;;;7.63;1.45;;;;;;;;;;2075798;28;20038;-73
2024/02/03 02:29:12;;;;;;;7.22;1.90;;;;;;;;;;2073334;28;20041;-73
2024/02/03 02:30:31;;;;;;;8.15;1.52;;;;;;;;;;2065448;28;20030;-74
2024/02/03 02:31:52;;;;;;;6.85;2.08;;;;;;;;;;2072646;28;20034;-74
2024/02/03 02:33:11;;;;;;;8.60;1.75;;;;;;;;;;2076415;28;20018;-73
2024/02/03 02:34:30;;;;;;;9.50;1.80;;;;;;;;;;2072395;28;20029;-73
2024/02/03 02:35:50;;;;;;;9.43;1.85;;;;;;;;;;2075664;28;20470;-73
2024/02/03 02:37:10;;;;;;;8.55;1.25;;;;;;;;;;2076643;28;20117;-73
2024/02/03 02:38:29;;;;;;;7.00;1.67;;;;;;;;;;2075052;28;20022;-74
2024/02/03 02:39:48;;;;;;;5.65;2.03;;;;;;;;;;2074582;28;20384;-74
2024/02/03 02:41:08;;;;;;;9.07;1.60;;;;;;;;;;2074371;28;20026;-74
2024/02/03 02:42:27;;;;;;;5.65;1.55;;;;;;;;;;2075942;28;20049;-73
2024/02/03 02:43:46;;;;;;;4.13;0.98;;;;;;;;;;2067276;28;20453;-74
2024/02/03 02:45:05;;;;;;;6.72;1.63;;;;;;;;;;2070827;28;20427;-74
2024/02/03 02:46:27;;;;;;;4.22;1.17;;;;;;;;;;2075116;28;20101;-74
2024/02/03 02:47:46;;;;;;;9.27;1.80;;;;;;;;;;2075697;28;20109;-73
2024/02/03 02:49:07;;;;;;;5.28;1.38;;;;;;;;;;2073427;28;20233;-73
2024/02/03 02:50:26;;;;;;;10.55;2.28;;;;;;;;;;2076193;28;20096;-76
2024/02/03 02:51:46;;;;;;;4.15;1.50;;;;;;;;;;2066564;28;20038;-76
2024/02/03 02:53:07;;;;;;;9.45;2.05;;;;;;;;;;2072552;28;20022;-76
2024/02/03 02:54:26;;;;;;;10.15;1.95;;;;;;;;;;2075325;28;20443;-76
2024/02/03 02:55:44;;;;;;;6.35;1.20;;;;;;;;;;2076319;28;20404;-76
2024/02/03 02:57:06;;;;;;;8.95;1.40;;;;;;;;;;2075616;28;20038;-76
2024/02/03 02:58:25;;;;;;;7.47;1.40;;;;;;;;;;2075404;28;20105;-76
2024/02/03 02:59:44;;;;;;;8.23;1.60;;;;;;;;;;2074678;28;20104;-76
2024/02/03 03:01:03;;;;;;;8.90;1.38;;;;;;;;;;2076066;28;20116;-77
2024/02/03 03:02:22;;;;;;;7.80;1.73;;;;;;;;;;2074894;28;20388;-76
2024/02/03 03:03:42;;;;;;;9.95;2.33;;;;;;;;;;2074763;28;20026;-76
2024/02/03 03:05:01;;;;;;;11.07;2.65;;;;;;;;;;2074596;28;20038;-78
2024/02/03 03:06:20;;;;;;;7.35;1.60;;;;;;;;;;2074854;28;20030;-76
2024/02/03 03:07:42;;;;;;;11.70;2.38;;;;;;;;;;2075682;28;20030;-76
2024/02/03 03:09:01;;;;;;;7.28;1.63;;;;;;;;;;2075490;28;20029;-77
2024/02/03 03:10:20;;;;;;;5.97;1.23;;;;;;;;;;2075610;28;20397;-76
2024/02/03 03:11:39;;;;;;;7.25;1.52;;;;;;;;;;2066173;28;20038;-76
2024/02/03 03:12:58;;;;;;;5.63;1.42;;;;;;;;;;2073967;28;20038;-77
2024/02/03 03:14:17;;;;;;;8.77;1.27;;;;;;;;;;2075652;28;20404;-77
2024/02/03 03:15:36;;;;;;;10.98;1.67;;;;;;;;;;2075491;28;20030;-77
2024/02/03 03:16:55;;;;;;;9.20;1.38;;;;;;;;;;2074009;28;20041;-76
2024/02/03 03:18:14;;;;;;;6.55;1.48;;;;;;;;;;2076963;28;20423;-76
2024/02/03 03:19:37;;;;;;;3.22;1.10;;;;;;;;;;2066674;28;20023;-76
2024/02/03 03:20:57;;;;;;;8.38;1.60;;;;;;;;;;2071900;28;20046;-76
2024/02/03 03:22:18;;;;;;;9.73;1.55;;;;;;;;;;2065689;28;20031;-76
2024/02/03 03:23:36;;;;;;;9.68;1.50;;;;;;;;;;2063670;28;20053;-76
2024/02/03 03:24:55;;;;;;;6.57;1.23;;;;;;;;;;2071828;28;20034;-76
2024/02/03 03:26:14;;;;;;;8.60;2.00;;;;;;;;;;2076404;28;20034;-77
2024/02/03 03:27:35;;;;;;;8.55;1.55;;;;;;;;;;2068434;28;20022;-76
2024/02/03 03:28:54;;;;;;;10.88;2.00;;;;;;;;;;2075192;28;20065;-77
2024/02/03 03:30:13;;;;;;;7.20;1.27;;;;;;;;;;2077230;28;20400;-76
2024/02/03 03:31:33;;;;;;;9.70;1.63;;;;;;;;;;2070371;28;20034;-77
2024/02/03 03:32:52;;;;;;;5.88;1.38;;;;;;;;;;2060523;28;20129;-76
2024/02/03 03:34:11;;;;;;;6.75;1.40;;;;;;;;;;2072911;28;20029;-76
2024/02/03 03:35:31;;;;;;;5.18;1.33;;;;;;;;;;2077046;28;20026;-76
2024/02/03 03:36:50;;;;;;;8.88;2.17;;;;;;;;;;2074714;28;20034;-77
2024/02/03 03:38:10;;;;;;;8.00;1.90;;;;;;;;;;2076990;28;20026;-76
2024/02/03 03:39:29;;;;;;;4.10;1.30;;;;;;;;;;2076159;28;20034;-76
2024/02/03 03:40:48;;;;;;;8.65;2.05;;;;;;;;;;2077776;28;20041;-76
2024/02/03 03:42:07;;;;;;;8.20;1.67;;;;;;;;;;2078416;28;20053;-76
2024/02/03 03:43:26;;;;;;;8.00;1.80;;;;;;;;;;2076830;28;20021;-76
2024/02/03 03:44:45;;;;;;;7.82;1.33;;;;;;;;;;2076441;28;20034;-76
2024/02/03 03:46:07;;;;;;;6.55;1.65;;;;;;;;;;2076574;28;20030;-76
2024/02/03 03:47:27;;;;;;;6.80;1.40;;;;;;;;;;2078094;28;20029;-75
2024/02/03 03:48:46;;;;;;;7.50;1.40;;;;;;;;;;2077045;28;20093;-77
2024/02/03 03:50:05;;;;;;;7.07;1.60;;;;;;;;;;2075970;28;20512;-77
2024/02/03 03:51:25;;;;;;;5.18;1.48;;;;;;;;;;2076526;28;20321;-77
2024/02/03 03:52:44;;;;;;;7.07;1.55;;;;;;;;;;2076701;28;20026;-77
2024/02/03 03:54:02;;;;;;;7.00;1.20;;;;;;;;;;2074481;28;20030;-77
2024/02/03 03:55:21;;;;;;;6.72;1.10;;;;;;;;;;2076906;28;20037;-77
2024/02/03 03:56:40;;;;;;;6.05;1.75;;;;;;;;;;2075754;28;20030;-77
2024/02/03 03:57:59;;;;;;;6.03;1.15;;;;;;;;;;2075789;28;20073;-77
2024/02/03 03:59:18;;;;;;;9.25;1.90;;;;;;;;;;2077530;28;20030;-77
2024/02/03 04:00:38;;;;;;;10.52;1.80;;;;;;;;;;2066352;28;20441;-74
2024/02/03 04:01:57;;;;;;;6.55;1.55;;;;;;;;;;2062937;28;20034;-76
2024/02/03 04:03:16;;;;;;;5.18;1.58;;;;;;;;;;2064864;28;20104;-74
2024/02/03 04:04:36;;;;;;;8.05;1.02;;;;;;;;;;2071469;28;20018;-74
2024/02/03 04:05:55;;;;;;;6.70;1.33;;;;;;;;;;2077398;28;20033;-74
2024/02/03 04:07:14;;;;;;;4.20;1.08;;;;;;;;;;2074660;28;20913;-74
2024/02/03 04:08:34;;;;;;;7.18;1.70;;;;;;;;;;2076966;28;20144;-74
2024/02/03 04:09:53;;;;;;;5.30;1.25;;;;;;;;;;2075542;28;20034;-73
2024/02/03 04:11:12;;;;;;;5.28;1.40;;;;;;;;;;2075818;28;20026;-74
2024/02/03 04:12:31;;;;;;;11.50;1.80;;;;;;;;;;2075607;28;20108;-74
2024/02/03 04:13:50;;;;;;;8.52;1.85;;;;;;;;;;2073627;28;20065;-74
2024/02/03 04:15:09;;;;;;;4.07;1.38;;;;;;;;;;2076215;28;20536;-74
2024/02/03 04:16:28;;;;;;;5.65;1.30;;;;;;;;;;2075598;28;20116;-74
2024/02/03 04:17:48;;;;;;;9.30;1.55;;;;;;;;;;2075459;28;20026;-74
2024/02/03 04:19:07;;;;;;;5.90;1.40;;;;;;;;;;2074654;28;20030;-74
2024/02/03 04:20:26;;;;;;;4.38;1.25;;;;;;;;;;2074503;28;20022;-74
2024/02/03 04:21:45;;;;;;;3.97;1.00;;;;;;;;;;2076137;28;20104;-74
2024/02/03 04:23:05;;;;;;;4.63;1.33;;;;;;;;;;2074279;28;20041;-73
2024/02/03 04:24:23;;;;;;;7.13;1.15;;;;;;;;;;2067386;28;20027;-75
2024/02/03 04:25:42;;;;;;;6.40;1.77;;;;;;;;;;2072858;28;20026;-74
2024/02/03 04:27:01;;;;;;;4.18;0.70;;;;;;;;;;2068089;28;20417;-74
2024/02/03 04:28:20;;;;;;;6.35;1.60;;;;;;;;;;2071488;28;20026;-75
2024/02/03 04:29:39;;;;;;;2.65;0.60;;;;;;;;;;2076311;28;20030;-74
2024/02/03 04:30:58;;;;;;;8.48;1.38;;;;;;;;;;2077397;28;20084;-75
2024/02/03 04:32:17;;;;;;;8.10;1.17;;;;;;;;;;2075790;28;20392;-74
2024/02/03 04:33:36;;;;;;;7.03;0.75;;;;;;;;;;2068686;28;20026;-74
2024/02/03 04:34:55;;;;;;;3.67;0.98;;;;;;;;;;2064363;28;20035;-74
2024/02/03 04:36:14;;;;;;;4.50;1.02;;;;;;;;;;2073701;28;20492;-74
2024/02/03 04:37:33;;;;;;;8.52;1.45;;;;;;;;;;2065597;28;20026;-74
2024/02/03 04:38:52;;;;;;;4.63;1.27;;;;;;;;;;2072676;28;20026;-74
2024/02/03 04:40:11;;;;;;;5.88;1.30;;;;;;;;;;2076275;28;20108;-75
2024/02/03 04:41:30;;;;;;;9.27;1.35;;;;;;;;;;2067323;28;20034;-74
2024/02/03 04:42:49;;;;;;;4.82;1.45;;;;;;;;;;2073717;28;20029;-74
2024/02/03 04:44:08;;;;;;;7.07;1.23;;;;;;;;;;2076663;28;20125;-74
2024/02/03 04:45:27;;;;;;;5.43;1.30;;;;;;;;;;2074730;28;20034;-75
2024/02/03 04:46:46;;;;;;;7.68;1.60;;;;;;;;;;2075579;28;20026;-74
2024/02/03 04:48:06;;;;;;;6.47;1.33;;;;;;;;;;2077402;28;20038;-74
2024/02/03 04:49:25;;;;;;;5.40;0.93;;;;;;;;;;2074427;28;20025;-74
2024/02/03 04:50:44;;;;;;;6.45;1.30;;;;;;;;;;2075591;28;20429;-75
2024/02/03 04:52:03;;;;;;;1.77;0.70;;;;;;;;;;2075477;28;20026;-74
2024/02/03 04:53:22;;;;;;;3.78;0.85;;;;;;;;;;2076269;28;20024;-75
2024/02/03 04:54:41;;;;;;;6.43;1.40;;;;;;;;;;2077879;28;20037;-74
2024/02/03 04:56:00;;;;;;;8.23;1.10;;;;;;;;;;2076487;28;20034;-74
2024/02/03 04:57:19;;;;;;;3.83;0.80;;;;;;;;;;2076372;28;20038;-74
2024/02/03 04:58:38;;;;;;;4.70;1.00;;;;;;;;;;2076698;28;20022;-74
2024/02/03 04:59:57;;;;;;;3.67;0.80;;;;;;;;;;2076380;28;20034;-74
2024/02/03 05:01:16;;;;;;;7.78;1.20;;;;;;;;;;2065841;28;20035;-74
2024/02/03 05:02:35;;;;;;;4.60;1.00;;;;;;;;;;2063481;28;20484;-74
2024/02/03 05:03:54;;;;;;;3.72;1.13;;;;;;;;;;2063719;28;20053;-75
2024/02/03 05:05:13;;;;;;;2.40;0.93;;;;;;;;;;2064024;28;20022;-74
2024/02/03 05:06:32;;;;;;;2.85;0.80;;;;;;;;;;2073095;28;20433;-74
2024/02/03 05:07:51;;;;;;;2.65;0.60;;;;;;;;;;2076769;28;20064;-74
2024/02/03 05:09:11;;;;;;;6.07;1.05;;;;;;;;;;2076745;28;20030;-74
2024/02/03 05:10:30;;;;;;;6.47;0.95;;;;;;;;;;2075866;28;20113;-74
2024/02/03 05:11:49;;;;;;;4.10;0.98;;;;;;;;;;2065702;28;20034;-73
2024/02/03 05:13:08;;;;;;;4.72;0.70;;;;;;;;;;2072376;28;20045;-74
2024/02/03 05:14:27;;;;;;;3.55;0.82;;;;;;;;;;2072126;28;20037;-75
2024/02/03 05:15:46;;;;;;;5.47;0.82;;;;;;;;;;2074821;28;20393;-74
2024/02/03 05:17:05;;;;;;;3.88;1.02;;;;;;;;;;2074080;28;20026;-74
2024/02/03 05:18:24;;;;;;;2.92;0.70;;;;;;;;;;2074972;28;20022;-74
2024/02/03 05:19:43;;;;;;;2.05;0.30;;;;;;;;;;2075929;28;20018;-75
2024/02/03 05:21:02;;;;;;;4.78;0.68;;;;;;;;;;2076374;28;20030;-74
2024/02/03 05:22:21;;;;;;;4.07;0.85;;;;;;;;;;2074373;28;20034;-75
2024/02/03 05:23:39;;;;;;;3.88;0.70;;;;;;;;;;2074709;28;20077;-74
2024/02/03 05:24:58;;;;;;;5.00;0.60;;;;;;;;;;2074245;28;20049;-74
2024/02/03 05:26:17;;;;;;;3.38;0.50;;;;;;;;;;2075995;28;20025;-74
2024/02/03 05:27:36;;;;;;;4.10;0.70;;;;;;;;;;2074545;28;20076;-74
2024/02/03 05:28:55;;;;;;;3.30;0.90;;;;;;;;;;2073925;28;20041;-74
2024/02/03 05:30:15;;;;;;;6.20;1.20;;;;;;;;;;2074180;28;20482;-74
2024/02/03 05:31:34;;;;;;;2.60;0.65;;;;;;;;;;2076112;28;20041;-74
2024/02/03 05:32:53;;;;;;;3.50;0.85;;;;;;;;;;2066988;28;20029;-74
2024/02/03 05:34:12;;;;;;;5.35;0.75;;;;;;;;;;2073377;28;20033;-74
2024/02/03 05:35:31;;;;;;;2.83;0.60;;;;;;;;;;2067951;28;20517;-74
2024/02/03 05:36:50;;;;;;;3.00;0.90;;;;;;;;;;2070730;28;20076;-74
2024/02/03 05:38:09;;;;;;;4.97;0.75;;;;;;;;;;2066583;28;20042;-74
2024/02/03 05:39:28;;;;;;;3.97;0.70;;;;;;;;;;2072430;28;20053;-74
2024/02/03 05:40:47;;;;;;;4.20;0.65;;;;;;;;;;2075966;28;20017;-74
2024/02/03 05:42:06;;;;;;;3.70;1.50;;;;;;;;;;2075459;28;20116;-74
2024/02/03 05:43:25;;;;;;;2.92;0.63;;;;;;;;;;2075588;28;20029;-74
2024/02/03 05:44:44;;;;;;;2.28;0.50;;;;;;;;;;2075475;28;20022;-74
2024/02/03 05:46:03;;;;;;;4.78;0.68;;;;;;;;;;2075937;28;20029;-74
2024/02/03 05:47:21;;;;;;;4.47;0.77;;;;;;;;;;2075349;28;20396;-74
2024/02/03 05:48:40;;;;;;;3.65;0.63;;;;;;;;;;2075547;28;20038;-74
2024/02/03 05:49:59;;;;;;;3.75;1.35;;;;;;;;;;2074460;28;20038;-74
2024/02/03 05:51:19;;;;;;;3.40;0.50;;;;;;;;;;2075080;28;20061;-74
2024/02/03 05:52:38;;;;;;;2.28;0.40;;;;;;;;;;2067056;28;20022;-75
2024/02/03 05:53:57;;;;;;;3.58;0.70;;;;;;;;;;2063938;28;20042;-74
2024/02/03 05:55:16;;;;;;;3.75;0.52;;;;;;;;;;2072153;28;20480;-74
2024/02/03 05:56:38;;;;;;;3.65;1.02;;;;;;;;;;2074768;28;20041;-74
2024/02/03 05:57:57;;;;;;;4.68;0.90;;;;;;;;;;2066596;28;20054;-74
2024/02/03 05:59:16;;;;;;;2.95;0.57;;;;;;;;;;2072204;28;20038;-74
2024/02/03 06:00:35;;;;;;;1.58;0.65;;;;;;;;;;2075669;28;20034;-74
2024/02/03 06:01:54;;;;;;;3.35;0.80;;;;;;;;;;2073837;28;20022;-74
2024/02/03 06:03:13;;;;;;;4.38;0.80;;;;;;;;;;2073791;28;20025;-75
2024/02/03 06:04:32;;;;;;;2.60;0.57;;;;;;;;;;2075610;28;20021;-74
2024/02/03 06:05:51;;;;;;;3.63;0.65;;;;;;;;;;2074551;28;20033;-74
2024/02/03 06:07:10;;;;;;;2.47;0.50;;;;;;;;;;2074619;28;20021;-74
2024/02/03 06:08:29;;;;;;;2.47;0.73;;;;;;;;;;2075382;28;20029;-74
2024/02/03 06:09:48;;;;;;;2.50;0.40;;;;;;;;;;2066396;28;20026;-75
2024/02/03 06:11:07;;;;;;;2.13;0.52;;;;;;;;;;2071701;28;20018;-74
2024/02/03 06:12:26;;;;;;;2.95;0.60;;;;;;;;;;2075803;28;20030;-74
2024/02/03 06:13:45;;;;;;;4.80;0.77;;;;;;;;;;2066867;28;20046;-74
2024/02/03 06:15:05;;;;;;;5.53;0.52;;;;;;;;;;2071669;28;20030;-75
2024/02/03 06:16:23;;;;;;;2.05;0.50;;;;;;;;;;2068668;28;20026;-75
2024/02/03 06:17:44;;;;;;;2.03;0.70;;;;;;;;;;2072672;28;20018;-75
2024/02/03 06:19:03;;;;;;;1.08;0.35;;;;;;;;;;2074188;28;20053;-75
2024/02/03 06:20:22;;;;;;;4.32;0.70;;;;;;;;;;2073359;28;20021;-77
2024/02/03 06:21:41;;;;;;;2.88;0.60;;;;;;;;;;2077195;28;20033;-76
2024/02/03 06:23:00;;;;;;;4.50;0.70;;;;;;;;;;2075716;28;20037;-77
2024/02/03 06:24:19;;;;;;;0.70;0.30;;;;;;;;;;2075356;28;20029;-77
2024/02/03 06:25:38;;;;;;;5.50;0.90;;;;;;;;;;2075805;28;20030;-76
2024/02/03 06:26:57;;;;;;;3.88;0.60;;;;;;;;;;2076153;28;20022;-76
2024/02/03 06:28:16;;;;;;;4.95;0.50;;;;;;;;;;2075737;28;20022;-76
2024/02/03 06:29:35;;;;;;;1.70;0.40;;;;;;;;;;2074760;28;20030;-76
2024/02/03 06:30:54;;;;;;;4.32;0.93;;;;;;;;;;2075246;28;20030;-77
2024/02/03 06:32:12;;;;;;;2.10;0.47;;;;;;;;;;2064368;28;20018;-78
2024/02/03 06:33:31;;;;;;;2.40;0.55;;;;;;;;;;2061671;28;20038;-78
2024/02/03 06:34:51;;;;;;;3.03;0.47;;;;;;;;;;2069536;28;20029;-76
2024/02/03 06:36:10;;;;;;;3.63;0.73;;;;;;;;;;2074492;28;20029;-77
2024/02/03 06:37:29;;;;;;;1.38;0.40;;;;;;;;;;2067209;28;20046;-77
2024/02/03 06:38:47;;;;;;;1.63;0.50;;;;;;;;;;2061331;28;20061;-76
2024/02/03 06:40:07;;;;;;;7.80;0.80;;;;;;;;;;2069696;28;20038;-75
2024/02/03 06:41:26;;;;;;;3.03;0.68;;;;;;;;;;2073855;28;20017;-74
2024/02/03 06:42:45;;;;;;;1.50;0.60;;;;;;;;;;2074029;28;20108;-77
2024/02/03 06:44:04;;;;;;;0.80;0.40;;;;;;;;;;2075353;28;20022;-75
2024/02/03 06:45:23;;;;;;;5.25;0.47;;;;;;;;;;2073235;28;20046;-76
2024/02/03 06:46:42;;;;;;;4.63;0.60;;;;;;;;;;2073456;28;20029;-78
2024/02/03 06:48:01;;;;;;;2.72;0.60;;;;;;;;;;2075975;28;20037;-74
2024/02/03 06:49:19;;;;;;;2.75;0.82;;;;;;;;;;2075610;28;20488;-74
2024/02/03 06:50:38;;;;;;;2.17;0.30;;;;;;;;;;2075149;28;20536;-75
2024/02/03 06:51:57;;;;;;;4.15;0.63;;;;;;;;;;2072070;28;20500;-76
2024/02/03 06:53:16;;;;;;;2.70;0.65;;;;;;;;;;2065196;28;20027;-77
2024/02/03 06:54:35;;;;;;;1.77;0.60;;;;;;;;;;2061627;28;20038;-76
2024/02/03 06:55:56;;;;;;;3.15;0.70;;;;;;;;;;2072138;28;20038;-78
2024/02/03 06:57:15;;;;;;;4.65;0.77;;;;;;;;;;2065869;28;20070;-76
2024/02/03 06:58:34;;;;;;;2.30;0.50;;;;;;;;;;2073122;28;20061;-79
2024/02/03 06:59:54;;;;;;;4.22;0.50;;;;;;;;;;2075160;28;20022;-80
2024/02/03 07:01:14;;;;;;;5.35;1.00;;;;;;;;;;2064976;28;20117;-78
2024/02/03 07:02:33;;;;;;;3.15;0.52;;;;;;;;;;2070009;28;21997;-77
2024/02/03 07:03:52;;;;;;;3.63;0.52;;;;;;;;;;2075321;28;20026;-79
2024/02/03 07:05:11;;;;;;;3.80;0.80;;;;;;;;;;2075365;28;20041;-77
2024/02/03 07:06:29;;;;;;;2.60;0.90;;;;;;;;;;2076079;28;20049;-75
2024/02/03 07:07:48;;;;;;;3.78;0.70;;;;;;;;;;2075010;28;20512;-75
2024/02/03 07:09:08;;;;;;;1.75;0.60;;;;;;;;;;2074729;28;20041;-75
2024/02/03 07:10:27;;;;;;;3.42;0.63;;;;;;;;;;2066713;28;20031;-75
2024/02/03 07:11:46;;;;;;;2.08;0.50;;;;;;;;;;2072189;28;20471;-75
2024/02/03 07:13:06;;;;;;;3.10;0.65;;;;;;;;;;2076419;28;20029;-76
2024/02/03 07:14:25;;;;;;;0.82;0.40;;;;;;;;;;2067378;28;20959;-78
2024/02/03 07:15:44;;;;;;;5.78;1.40;;;;;;;;;;2063874;28;20025;-77
2024/02/03 07:17:03;;;;;;;2.13;0.52;;;;;;;;;;2069409;28;20030;-77
2024/02/03 07:18:21;;;;;;;0.85;0.60;;;;;;;;;;2075062;28;20022;-78
2024/02/03 07:19:40;;;;;;;3.22;0.90;;;;;;;;;;2076378;28;20492;-77
2024/02/03 07:20:59;;;;;;;1.40;0.50;;;;;;;;;;2075485;28;20033;-76
2024/02/03 07:22:19;;;;;;;2.85;0.68;;;;;;;;;;2066246;28;20037;-76
2024/02/03 07:23:38;;;;;;;4.10;0.80;;;;;;;;;;2072837;28;20029;-77
2024/02/03 07:24:57;;;;;;;3.80;0.77;;;;;;;;;;2074740;28;20029;-76
2024/02/03 07:26:16;;;;;;;2.83;0.50;;;;;;;;;;2074918;28;20381;-77
2024/02/03 07:27:35;;;;;;;1.23;0.45;;;;;;;;;;2074911;28;20540;-79
2024/02/03 07:28:54;;;;;;;3.78;0.55;;;;;;;;;;2075316;28;20101;-77
2024/02/03 07:30:13;;;;;;;3.13;0.63;;;;;;;;;;2076298;28;20022;-74
2024/02/03 07:31:32;;;;;;;2.28;0.60;;;;;;;;;;2076254;28;20065;-74
2024/02/03 07:32:51;;;;;;;5.38;0.70;;;;;;;;;;2075514;28;20469;-76
2024/02/03 07:34:09;;;;;;;2.42;0.80;;;;;;;;;;2066960;28;20082;-75
2024/02/03 07:35:29;;;;;;;2.15;0.55;;;;;;;;;;2073131;28;20041;-74
2024/02/03 07:36:49;;;;;;;2.60;0.60;;;;;;;;;;2063698;28;20109;-74
2024/02/03 07:38:07;;;;;;;2.72;1.02;;;;;;;;;;2071172;28;20156;-74
2024/02/03 07:39:27;;;;;;;4.80;0.65;;;;;;;;;;2064959;28;20022;-73
2024/02/03 07:40:46;;;;;;;1.40;0.70;;;;;;;;;;2072477;28;20022;-73
2024/02/03 07:42:05;;;;;;;2.63;0.63;;;;;;;;;;2074430;28;20033;-74
2024/02/03 07:43:24;;;;;;;3.25;0.60;;;;;;;;;;2074629;28;20025;-74
2024/02/03 07:44:43;;;;;;;2.45;0.60;;;;;;;;;;2075729;28;20030;-73
2024/02/03 07:46:02;;;;;;;2.78;0.60;;;;;;;;;;2076783;28;20512;-73
2024/02/03 07:47:21;;;;;;;1.42;0.50;;;;;;;;;;2074282;28;20033;-74
2024/02/03 07:48:40;;;;;;;2.38;0.88;;;;;;;;;;2065336;28;20027;-74
2024/02/03 07:49:59;;;;;;;1.23;0.45;;;;;;;;;;2069080;28;20045;-74
2024/02/03 07:51:18;;;;;;;2.05;0.63;;;;;;;;;;2074702;28;20109;-75
2024/02/03 07:52:37;;;;;;;1.48;0.55;;;;;;;;;;2074533;28;20029;-74
2024/02/03 07:53:56;;;;;;;1.65;0.65;;;;;;;;;;2074386;28;20033;-75